createdAt,value
2019-05-02T00:03:59.333Z,94.05
2019-05-02T00:06:26.904Z,94.10
2019-05-02T00:08:54.143Z,93.89
2019-05-02T00:11:21.275Z,94.37
2019-05-02T00:13:48.589Z,93.87
2019-05-02T00:16:15.837Z,95.15
2019-05-02T00:18:43.039Z,95.91
2019-05-02T00:21:10.463Z,96.23
2019-05-02T00:23:37.541Z,96.66
2019-05-02T00:26:04.998Z,96.46
2019-05-02T00:28:32.555Z,96.92
2019-05-02T00:31:00.012Z,97.06
2019-05-02T00:33:29.221Z,97.34
2019-05-02T00:35:56.625Z,97.64
2019-05-02T00:38:23.732Z,97.46
2019-05-02T00:40:51.018Z,97.45
2019-05-02T00:43:18.125Z,97.10
2019-05-02T00:45:45.820Z,97.11
2019-05-02T00:50:55.215Z,97.24
2019-05-02T00:53:44.467Z,96.84
2019-05-02T00:56:10.645Z,97.21
2019-05-02T00:58:38.264Z,97.68
2019-05-02T01:01:44.392Z,97.78
2019-05-02T01:04:30.860Z,98.49
2019-05-02T01:06:58.304Z,98.99
2019-05-02T01:09:25.386Z,99.87
2019-05-02T01:11:52.448Z,99.62
2019-05-02T01:14:20.106Z,99.22
2019-05-02T01:16:49.423Z,99.86
2019-05-02T01:19:17.239Z,100.00
2019-05-02T01:21:45.382Z,99.62
2019-05-02T01:24:12.486Z,100.00
2019-05-02T01:32:31.340Z,99.88
2019-05-02T01:35:17.927Z,98.41
2019-05-02T01:38:04.425Z,98.61
2019-05-02T01:40:31.950Z,98.33
2019-05-02T01:43:41.901Z,98.16
2019-05-02T01:46:08.704Z,98.18
2019-05-02T01:48:35.433Z,99.38
2019-05-02T01:51:04.527Z,99.07
2019-05-02T01:53:34.211Z,99.04
2019-05-02T01:56:00.820Z,99.92
2019-05-02T01:58:27.979Z,99.44
2019-05-02T02:01:08.399Z,99.61
2019-05-02T02:03:40.639Z,100.00
2019-05-02T02:06:08.245Z,100.00
2019-05-02T02:08:34.123Z,100.00
2019-05-02T02:11:01.239Z,99.34
2019-05-02T02:13:31.172Z,98.48
2019-05-02T02:16:00.119Z,97.99
2019-05-02T02:21:35.498Z,95.65
2019-05-02T02:24:25.217Z,94.59
2019-05-02T02:26:51.515Z,94.50
2019-05-02T02:29:18.600Z,92.80
2019-05-02T02:31:48.218Z,91.65
2019-05-02T02:34:21.393Z,90.23
2019-05-02T02:36:44.046Z,89.35
2019-05-02T02:39:14.415Z,89.33
2019-05-02T02:41:45.234Z,88.42
2019-05-02T02:44:33.677Z,87.61
2019-05-02T02:46:58.178Z,88.38
2019-05-02T02:49:25.331Z,87.88
2019-05-02T02:51:57.949Z,87.65
2019-05-02T02:54:21.757Z,87.08
2019-05-02T02:56:49.036Z,87.43
2019-05-02T02:59:19.453Z,87.78
2019-05-02T03:01:45.312Z,87.32
2019-05-02T03:04:12.502Z,87.84
2019-05-02T03:06:44.855Z,88.64
2019-05-02T03:09:09.104Z,88.92
2019-05-02T03:17:10.557Z,88.78
2019-05-02T03:19:37.281Z,88.84
2019-05-02T03:22:04.310Z,89.54
2019-05-02T03:24:36.438Z,89.23
2019-05-02T03:27:02.141Z,89.34
2019-05-02T03:29:39.731Z,89.17
2019-05-02T03:32:26.156Z,89.79
2019-05-02T03:34:44.824Z,88.57
2019-05-02T03:37:03.136Z,88.60
2019-05-02T03:39:25.041Z,86.86
2019-05-02T03:41:55.831Z,87.00
2019-05-02T03:45:04.988Z,86.59
2019-05-02T03:47:36.645Z,87.02
2019-05-02T03:52:59.163Z,85.08
2019-05-02T03:55:30.781Z,84.49
2019-05-02T04:04:01.417Z,83.78
2019-05-02T04:09:39.069Z,82.89
2019-05-02T04:12:44.621Z,83.10
2019-05-02T04:15:11.700Z,82.50
2019-05-02T04:18:00.117Z,82.89
2019-05-02T04:20:27.342Z,82.49
2019-05-02T04:22:54.595Z,81.54
2019-05-02T04:25:28.011Z,81.34
2019-05-02T04:27:51.177Z,79.83
2019-05-02T04:30:18.501Z,80.22
2019-05-02T04:33:05.598Z,80.37
2019-05-02T04:35:34.778Z,79.99
2019-05-02T04:38:08.020Z,79.86
2019-05-02T04:40:34.831Z,80.51
2019-05-02T04:43:02.062Z,81.08
2019-05-02T04:45:45.961Z,81.10
2019-05-02T04:48:03.788Z,81.17
2019-05-02T04:50:29.498Z,81.41
2019-05-02T04:52:59.256Z,81.67
2019-05-02T04:55:30.245Z,81.74
2019-05-02T05:00:53.620Z,81.14
2019-05-02T05:03:20.605Z,81.38
2019-05-02T05:05:48.270Z,80.94
2019-05-02T05:08:19.644Z,79.77
2019-05-02T05:10:45.151Z,79.84
2019-05-02T05:13:19.762Z,79.71
2019-05-02T05:15:48.853Z,80.73
2019-05-02T05:18:14.358Z,80.71
2019-05-02T05:20:40.578Z,79.79
2019-05-02T05:28:35.131Z,78.15
2019-05-02T05:31:02.097Z,77.38
2019-05-02T05:33:29.234Z,76.79
2019-05-02T05:35:57.830Z,77.41
2019-05-02T05:38:28.530Z,77.74
2019-05-02T05:40:54.676Z,77.63
2019-05-02T05:43:21.765Z,78.22
2019-05-02T05:45:56.164Z,77.95
2019-05-02T05:48:18.371Z,77.52
2019-05-02T05:50:47.780Z,77.71
2019-05-02T05:53:19.175Z,77.72
2019-05-02T05:55:47.368Z,77.75
2019-05-02T05:58:15.742Z,77.79
2019-05-02T06:00:45.998Z,77.02
2019-05-02T06:03:14.231Z,77.63
2019-05-02T06:05:42.693Z,77.42
2019-05-02T06:08:13.883Z,77.42
2019-05-02T06:10:58.173Z,77.03
2019-05-02T06:13:24.903Z,77.72
2019-05-02T06:16:02.193Z,76.88
2019-05-02T06:18:20.838Z,78.16
2019-05-02T06:20:48.043Z,77.72
2019-05-02T06:23:15.753Z,76.83
2019-05-02T06:25:43.005Z,77.41
2019-05-02T06:28:10.197Z,78.08
2019-05-02T06:30:37.497Z,78.20
2019-05-02T06:33:46.891Z,78.82
2019-05-02T06:36:14.518Z,78.14
2019-05-02T06:38:41.643Z,77.36
2019-05-02T06:41:08.736Z,78.48
2019-05-02T06:43:35.938Z,77.08
2019-05-02T06:46:15.380Z,76.68
2019-05-02T06:48:32.428Z,76.64
2019-05-02T06:50:59.561Z,76.06
2019-05-02T06:53:26.728Z,76.39
2019-05-02T06:55:53.883Z,75.83
2019-05-02T06:58:21.150Z,75.69
2019-05-02T07:00:57.352Z,74.80
2019-05-02T07:03:17.571Z,74.77
2019-05-02T07:05:44.727Z,73.88
2019-05-02T07:08:13.986Z,74.29
2019-05-02T07:10:55.895Z,74.39
2019-05-02T07:13:23.196Z,74.35
2019-05-02T07:16:10.389Z,74.20
2019-05-02T07:21:31.373Z,74.03
2019-05-02T07:23:58.480Z,75.47
2019-05-02T07:26:26.120Z,76.13
2019-05-02T07:28:53.244Z,75.19
2019-05-02T07:31:20.402Z,75.88
2019-05-02T07:33:47.544Z,75.93
2019-05-02T07:36:14.904Z,77.12
2019-05-02T07:38:42.070Z,76.30
2019-05-02T07:41:09.224Z,76.31
2019-05-02T07:43:36.329Z,77.10
2019-05-02T07:46:03.905Z,75.77
2019-05-02T07:48:31.308Z,76.13
2019-05-02T07:51:21.300Z,76.90
2019-05-02T07:53:48.556Z,76.77
2019-05-02T07:56:17.693Z,75.96
2019-05-02T07:58:48.012Z,76.94
2019-05-02T08:02:12.274Z,77.59
2019-05-02T08:04:43.577Z,77.48
2019-05-02T08:07:08.307Z,78.50
2019-05-02T08:09:39.295Z,77.14
2019-05-02T08:12:25.439Z,76.63
2019-05-02T08:14:52.991Z,76.76
2019-05-02T08:17:20.564Z,76.67
2019-05-02T08:19:47.740Z,77.04
2019-05-02T08:22:15.068Z,76.88
2019-05-02T08:24:42.441Z,77.27
2019-05-02T08:27:34.743Z,76.48
2019-05-02T08:30:00.117Z,76.07
2019-05-02T08:32:27.735Z,76.31
2019-05-02T08:34:55.181Z,76.79
2019-05-02T08:37:22.303Z,76.35
2019-05-02T08:39:49.404Z,76.40
2019-05-02T08:42:16.540Z,75.91
2019-05-02T08:44:51.293Z,75.46
2019-05-02T08:47:28.415Z,76.98
2019-05-02T08:49:43.652Z,75.15
2019-05-02T08:52:10.554Z,75.73
2019-05-02T08:54:37.430Z,75.62
2019-05-02T08:57:46.105Z,75.88
2019-05-02T09:00:13.635Z,75.04
2019-05-02T09:02:41.881Z,75.30
2019-05-02T09:05:09.924Z,74.57
2019-05-02T09:07:39.339Z,75.74
2019-05-02T09:10:07.785Z,75.94
2019-05-02T09:12:36.701Z,76.60
2019-05-02T09:15:04.311Z,76.22
2019-05-02T09:17:56.221Z,75.86
2019-05-02T09:20:21.488Z,75.71
2019-05-02T09:22:52.268Z,75.92
2019-05-02T09:25:18.838Z,76.05
2019-05-02T09:27:46.000Z,75.69
2019-05-02T09:30:17.020Z,74.64
2019-05-02T09:32:42.746Z,73.86
2019-05-02T09:35:11.674Z,72.45
2019-05-02T09:37:41.699Z,72.87
2019-05-02T09:40:12.592Z,72.67
2019-05-02T09:42:37.964Z,72.55
2019-05-02T09:48:03.978Z,72.49
2019-05-02T09:50:29.524Z,73.96
2019-05-02T09:52:52.370Z,72.50
2019-05-02T09:55:22.597Z,73.28
2019-05-02T09:57:51.908Z,72.89
2019-05-02T10:01:02.027Z,73.14
2019-05-02T10:03:49.152Z,73.20
2019-05-02T10:06:18.284Z,71.87
2019-05-02T10:08:46.735Z,71.75
2019-05-02T10:11:17.011Z,71.32
2019-05-02T10:13:43.153Z,71.63
2019-05-02T10:16:09.910Z,71.96
2019-05-02T10:19:00.339Z,70.27
2019-05-02T10:21:25.599Z,69.47
2019-05-02T10:23:59.126Z,69.69
2019-05-02T10:26:41.944Z,69.61
2019-05-02T10:29:09.973Z,69.02
2019-05-02T10:31:38.048Z,69.57
2019-05-02T10:34:08.502Z,70.50
2019-05-02T10:36:35.749Z,71.46
2019-05-02T10:39:28.445Z,70.47
2019-05-02T10:42:13.450Z,70.95
2019-05-02T10:44:40.311Z,70.78
2019-05-02T10:47:07.033Z,70.74
2019-05-02T10:49:42.751Z,71.01
2019-05-02T10:52:09.487Z,70.17
2019-05-02T10:54:37.479Z,70.09
2019-05-02T10:57:05.313Z,70.35
2019-05-02T10:59:32.928Z,70.60
2019-05-02T11:02:19.611Z,71.57
2019-05-02T11:07:37.475Z,71.29
2019-05-02T11:10:25.779Z,71.37
2019-05-02T11:13:12.591Z,70.72
2019-05-02T11:15:59.078Z,70.25
2019-05-02T11:21:04.408Z,70.01
2019-05-02T11:23:32.700Z,70.82
2019-05-02T11:25:59.122Z,70.61
2019-05-02T11:28:25.877Z,71.51
2019-05-02T11:30:56.929Z,70.43
2019-05-02T11:33:22.938Z,70.84
2019-05-02T11:35:53.391Z,71.47
2019-05-02T11:38:37.572Z,71.10
2019-05-02T11:40:49.248Z,71.30
2019-05-02T11:43:16.337Z,70.56
2019-05-02T11:45:43.581Z,70.80
2019-05-02T11:48:11.971Z,70.96
2019-05-02T11:50:39.691Z,69.86
2019-05-02T11:53:29.420Z,70.42
2019-05-02T11:55:58.366Z,69.31
2019-05-02T11:58:24.334Z,68.87
2019-05-02T12:00:52.306Z,69.96
2019-05-02T12:03:42.157Z,70.19
2019-05-02T12:06:28.865Z,69.13
2019-05-02T12:08:56.221Z,69.28
2019-05-02T12:11:23.924Z,68.57
2019-05-02T12:13:52.818Z,69.59
2019-05-02T12:16:32.854Z,69.87
2019-05-02T12:19:09.444Z,69.42
2019-05-02T12:21:32.317Z,69.47
2019-05-02T12:24:01.673Z,69.28
2019-05-02T12:26:49.084Z,70.10
2019-05-02T12:29:16.238Z,70.46
2019-05-02T12:32:03.095Z,68.57
2019-05-02T12:34:32.422Z,68.41
2019-05-02T12:37:19.121Z,69.21
2019-05-02T12:39:45.890Z,68.96
2019-05-02T12:42:13.204Z,69.79
2019-05-02T12:44:42.589Z,69.71
2019-05-02T12:47:31.930Z,69.38
2019-05-02T12:49:59.599Z,68.75
2019-05-02T12:52:26.662Z,69.81
2019-05-02T12:54:54.431Z,70.05
2019-05-02T12:57:22.140Z,68.57
2019-05-02T12:59:49.334Z,68.35
2019-05-02T13:05:13.208Z,68.41
2019-05-02T13:07:42.806Z,68.06
2019-05-02T13:12:45.333Z,67.84
2019-05-02T13:15:12.878Z,68.28
2019-05-02T13:17:53.306Z,68.42
2019-05-02T13:20:37.047Z,67.75
2019-05-02T13:23:43.523Z,67.33
2019-05-02T13:26:19.823Z,67.00
2019-05-02T13:28:41.753Z,67.43
2019-05-02T13:31:28.151Z,67.29
2019-05-02T13:40:12.004Z,67.72
2019-05-02T13:42:39.360Z,68.34
2019-05-02T13:45:47.364Z,67.22
2019-05-02T13:48:14.955Z,66.60
2019-05-02T13:51:23.091Z,67.78
2019-05-02T13:54:09.789Z,68.15
2019-05-02T13:56:56.433Z,67.80
2019-05-02T13:59:23.175Z,67.96
2019-05-02T14:02:12.264Z,68.68
2019-05-02T14:04:41.524Z,67.75
2019-05-02T14:07:13.247Z,67.60
2019-05-02T14:09:59.876Z,67.09
2019-05-02T14:18:12.884Z,63.64
2019-05-02T14:20:40.046Z,63.05
2019-05-02T14:23:07.091Z,62.26
2019-05-02T14:25:34.879Z,63.25
2019-05-02T14:28:03.081Z,63.84
2019-05-02T14:30:39.438Z,63.21
2019-05-02T14:36:04.100Z,65.77
2019-05-02T14:38:32.272Z,64.97
2019-05-02T14:41:21.793Z,65.22
2019-05-02T14:43:54.843Z,65.09
2019-05-02T14:49:16.718Z,65.43
2019-05-02T14:51:41.940Z,63.63
2019-05-02T14:54:09.569Z,64.33
2019-05-02T14:59:32.286Z,62.37
2019-05-02T15:07:32.144Z,59.55
2019-05-02T15:10:02.729Z,61.82
2019-05-02T15:12:29.989Z,59.96
2019-05-02T15:14:58.780Z,60.80
2019-05-02T15:17:27.974Z,60.86
2019-05-02T15:19:56.273Z,62.71
2019-05-02T15:22:27.621Z,62.31
2019-05-02T15:24:53.279Z,63.43
2019-05-02T15:27:22.235Z,64.26
2019-05-02T15:29:55.370Z,63.22
2019-05-02T15:32:44.933Z,63.89
2019-05-02T15:35:27.887Z,64.33
2019-05-02T15:37:56.741Z,65.47
2019-05-02T15:42:56.759Z,64.81
2019-05-02T15:45:23.779Z,65.30
2019-05-02T15:47:52.591Z,64.57
2019-05-02T15:50:23.820Z,64.44
2019-05-02T15:55:43.596Z,64.87
2019-05-02T15:58:29.710Z,64.51
2019-05-02T16:01:16.645Z,63.80
2019-05-02T16:03:46.529Z,63.77
2019-05-02T16:06:34.534Z,64.31
2019-05-02T16:09:02.448Z,64.89
2019-05-02T16:11:32.084Z,64.54
2019-05-02T16:14:18.688Z,63.60
2019-05-02T16:16:46.258Z,65.16
2019-05-02T16:19:14.921Z,65.62
2019-05-02T16:22:06.670Z,67.38
2019-05-02T16:24:32.003Z,65.20
2019-05-02T16:26:59.409Z,66.30
2019-05-02T16:29:28.671Z,66.18
2019-05-02T16:32:15.112Z,66.54
2019-05-02T16:35:07.255Z,67.11
2019-05-02T16:37:32.503Z,67.44
2019-05-02T16:39:59.575Z,67.23
2019-05-02T16:42:26.461Z,67.17
2019-05-02T16:44:54.766Z,67.50
2019-05-02T16:47:22.185Z,66.32
2019-05-02T16:49:53.265Z,65.45
2019-05-02T16:52:22.094Z,66.54
2019-05-02T16:54:49.379Z,66.88
2019-05-02T16:57:17.289Z,67.33
2019-05-02T17:00:06.419Z,66.74
2019-05-02T17:02:37.949Z,68.45
2019-05-02T17:05:22.814Z,67.40
2019-05-02T17:08:10.431Z,68.20
2019-05-02T17:10:42.206Z,68.65
2019-05-02T17:13:12.509Z,67.85
2019-05-02T17:15:39.927Z,68.53
2019-05-02T17:18:12.731Z,67.68
2019-05-02T17:20:36.835Z,69.43
2019-05-02T17:23:07.539Z,70.51
2019-05-02T17:25:52.701Z,70.03
2019-05-02T17:28:22.187Z,71.14
2019-05-02T17:30:49.243Z,69.59
2019-05-02T17:33:16.569Z,70.69
2019-05-02T17:35:49.616Z,70.36
2019-05-02T17:38:13.102Z,70.41
2019-05-02T17:40:42.020Z,69.98
2019-05-02T17:43:09.835Z,70.44
2019-05-02T17:45:38.612Z,70.41
2019-05-02T17:48:10.406Z,70.41
2019-05-02T17:50:58.955Z,70.86
2019-05-02T17:53:23.592Z,69.93
2019-05-02T17:55:52.567Z,70.15
2019-05-02T17:58:21.502Z,70.58
2019-05-02T18:04:01.868Z,72.29
2019-05-02T18:06:32.967Z,72.97
2019-05-02T18:08:57.922Z,73.49
2019-05-02T18:11:29.616Z,73.37
2019-05-02T18:13:54.235Z,73.33
2019-05-02T18:16:22.100Z,73.15
2019-05-02T18:18:49.356Z,73.08
2019-05-02T18:21:17.289Z,73.01
2019-05-02T18:23:46.815Z,73.50
2019-05-02T18:26:14.602Z,73.38
2019-05-02T18:28:48.975Z,73.65
2019-05-02T18:31:12.182Z,74.11
2019-05-02T18:33:41.095Z,74.40
2019-05-02T18:36:09.245Z,74.44
2019-05-02T18:38:36.386Z,74.17
2019-05-02T18:41:06.182Z,74.76
2019-05-02T18:43:36.081Z,75.20
2019-05-02T18:46:05.920Z,75.45
2019-05-02T18:48:31.816Z,75.18
2019-05-02T18:51:19.066Z,75.30
2019-05-02T18:53:47.255Z,76.04
2019-05-02T18:56:14.053Z,76.20
2019-05-02T18:58:45.224Z,76.69
2019-05-02T19:01:14.009Z,76.17
2019-05-02T19:03:38.810Z,76.32
2019-05-02T19:06:28.005Z,75.45
2019-05-02T19:09:17.473Z,75.04
2019-05-02T19:11:44.840Z,75.10
2019-05-02T19:14:16.716Z,75.04
2019-05-02T19:16:42.522Z,75.27
2019-05-02T19:19:09.468Z,75.73
2019-05-02T19:21:39.403Z,75.76
2019-05-02T19:24:04.977Z,75.36
2019-05-02T19:26:32.616Z,76.21
2019-05-02T19:29:23.527Z,75.91
2019-05-02T19:32:12.057Z,76.93
2019-05-02T19:34:38.806Z,76.52
2019-05-02T19:37:05.935Z,77.44
2019-05-02T19:40:14.946Z,76.62
2019-05-02T19:42:44.903Z,77.90
2019-05-02T19:45:16.453Z,77.78
2019-05-02T19:47:42.017Z,77.61
2019-05-02T19:50:41.652Z,78.19
2019-05-02T19:53:05.302Z,77.61
2019-05-02T19:55:32.357Z,78.04
2019-05-02T19:58:02.431Z,78.34
2019-05-02T20:00:28.246Z,78.53
2019-05-02T20:02:55.287Z,79.10
2019-05-02T20:05:25.470Z,78.51
2019-05-02T20:07:51.975Z,78.51
2019-05-02T20:10:19.761Z,78.54
2019-05-02T20:12:48.185Z,78.66
2019-05-02T20:15:57.177Z,78.24
2019-05-02T20:18:27.975Z,78.94
2019-05-02T20:23:35.654Z,79.10
2019-05-02T20:26:02.504Z,78.90
2019-05-02T20:28:29.288Z,78.87
2019-05-02T20:30:56.088Z,78.69
2019-05-02T20:33:22.959Z,78.56
2019-05-02T20:35:49.711Z,78.56
2019-05-02T20:38:16.575Z,78.80
2019-05-02T20:40:43.405Z,79.28
2019-05-02T20:43:12.005Z,80.11
2019-05-02T20:45:38.907Z,79.16
2019-05-02T20:48:05.839Z,78.84
2019-05-02T20:50:32.704Z,79.28
2019-05-02T20:52:59.526Z,78.88
2019-05-02T20:55:26.406Z,79.34
2019-05-02T20:57:53.123Z,78.71
2019-05-02T21:00:39.529Z,79.76
2019-05-02T21:03:06.338Z,79.17
2019-05-02T21:08:32.596Z,78.94
2019-05-02T21:14:09.070Z,79.03
2019-05-02T21:16:35.794Z,79.24
2019-05-02T21:19:02.663Z,79.63
2019-05-02T21:22:10.528Z,80.52
2019-05-02T21:24:37.884Z,82.12
2019-05-02T21:27:05.446Z,81.99
2019-05-02T21:29:32.630Z,82.38
2019-05-02T21:31:59.705Z,83.34
2019-05-02T21:34:26.822Z,84.54
2019-05-02T21:36:54.242Z,85.54
2019-05-02T21:39:22.513Z,86.29
2019-05-02T21:41:51.683Z,87.18
2019-05-02T21:44:19.052Z,87.83
2019-05-02T21:46:45.685Z,87.68
2019-05-02T21:55:05.549Z,89.27
2019-05-02T21:57:32.641Z,90.13
2019-05-02T22:00:02.320Z,90.67
2019-05-02T22:02:29.204Z,91.20
2019-05-02T22:04:56.525Z,93.49
2019-05-02T22:07:23.619Z,96.25
2019-05-02T22:09:52.402Z,97.94
2019-05-02T22:12:38.889Z,99.17
2019-05-02T22:15:05.843Z,98.83
2019-05-02T22:17:32.566Z,97.71
2019-05-02T22:20:01.677Z,93.03
2019-05-02T22:22:28.337Z,91.52
2019-05-02T22:24:55.418Z,90.93
2019-05-02T22:27:22.180Z,87.80
2019-05-02T22:30:02.212Z,87.35
2019-05-02T22:32:29.379Z,87.00
2019-05-02T22:34:56.438Z,87.80
2019-05-02T22:42:38.584Z,88.42
2019-05-02T22:45:05.501Z,88.88
2019-05-02T22:47:32.224Z,89.53
2019-05-02T22:49:59.276Z,89.76
2019-05-02T22:52:26.045Z,89.51
2019-05-02T22:54:52.665Z,89.56
2019-05-02T22:57:19.463Z,89.23
2019-05-02T22:59:46.186Z,90.26
2019-05-02T23:04:47.885Z,89.22
2019-05-02T23:07:14.747Z,87.92
2019-05-02T23:09:43.374Z,85.27
2019-05-02T23:12:10.234Z,84.47
2019-05-02T23:14:36.955Z,84.58
2019-05-02T23:17:03.727Z,81.74
2019-05-02T23:19:31.733Z,79.81
2019-05-02T23:21:59.605Z,77.99
2019-05-02T23:27:42.391Z,74.90
2019-05-02T23:30:51.903Z,75.06
2019-05-02T23:33:19.637Z,74.63
2019-05-02T23:35:46.675Z,74.23
2019-05-02T23:38:13.489Z,73.94
2019-05-02T23:40:41.997Z,73.39
2019-05-02T23:43:08.963Z,73.97
2019-05-02T23:45:35.672Z,74.31
2019-05-02T23:48:02.995Z,75.40
2019-05-02T23:50:29.631Z,75.70
2019-05-02T23:52:56.603Z,75.38
2019-05-02T23:55:23.443Z,76.05
2019-05-02T23:57:51.798Z,76.64
